sensor_id;sensor_type;location;lat;lon;timestamp;temperature;humidity
21770;DHT22;11046;49.558;8.674;2023-07-13T00:01:49;20.90;55.90
21770;DHT22;11046;49.558;8.674;2023-07-13T00:04:50;20.80;56.10
21770;DHT22;11046;49.558;8.674;2023-07-13T00:07:51;20.80;56.20
21770;DHT22;11046;49.558;8.674;2023-07-13T00:10:52;20.70;56.30
21770;DHT22;11046;49.558;8.674;2023-07-13T00:13:56;20.80;56.30
21770;DHT22;11046;49.558;8.674;2023-07-13T00:16:56;20.80;55.90
21770;DHT22;11046;49.558;8.674;2023-07-13T00:19:57;20.80;55.80
21770;DHT22;11046;49.558;8.674;2023-07-13T00:22:58;20.70;55.60
21770;DHT22;11046;49.558;8.674;2023-07-13T00:26:00;20.60;55.60
21770;DHT22;11046;49.558;8.674;2023-07-13T00:29:01;20.60;55.60
21770;DHT22;11046;49.558;8.674;2023-07-13T00:32:04;20.50;55.70
21770;DHT22;11046;49.558;8.674;2023-07-13T00:35:06;20.50;55.70
21770;DHT22;11046;49.558;8.674;2023-07-13T00:38:07;20.50;55.60
21770;DHT22;11046;49.558;8.674;2023-07-13T00:41:08;20.50;55.70
21770;DHT22;11046;49.558;8.674;2023-07-13T00:44:18;20.50;55.70
21770;DHT22;11046;49.558;8.674;2023-07-13T00:47:18;20.50;55.50
21770;DHT22;11046;49.558;8.674;2023-07-13T00:50:21;20.50;55.50
21770;DHT22;11046;49.558;8.674;2023-07-13T00:53:24;20.40;55.60
21770;DHT22;11046;49.558;8.674;2023-07-13T00:56:26;20.30;55.60
21770;DHT22;11046;49.558;8.674;2023-07-13T00:59:29;20.30;55.60
21770;DHT22;11046;49.558;8.674;2023-07-13T01:02:31;20.20;55.80
21770;DHT22;11046;49.558;8.674;2023-07-13T01:05:33;20.00;56.10
21770;DHT22;11046;49.558;8.674;2023-07-13T01:08:34;19.90;56.30
21770;DHT22;11046;49.558;8.674;2023-07-13T01:11:35;19.80;56.50
21770;DHT22;11046;49.558;8.674;2023-07-13T01:14:37;19.70;56.80
21770;DHT22;11046;49.558;8.674;2023-07-13T01:17:37;19.50;56.90
21770;DHT22;11046;49.558;8.674;2023-07-13T01:20:40;19.50;57.10
21770;DHT22;11046;49.558;8.674;2023-07-13T01:23:41;19.20;57.40
21770;DHT22;11046;49.558;8.674;2023-07-13T01:26:41;19.10;57.80
21770;DHT22;11046;49.558;8.674;2023-07-13T01:29:44;19.00;58.30
21770;DHT22;11046;49.558;8.674;2023-07-13T01:32:46;18.90;58.70
21770;DHT22;11046;49.558;8.674;2023-07-13T01:35:47;18.80;59.00
21770;DHT22;11046;49.558;8.674;2023-07-13T01:38:50;18.70;59.10
21770;DHT22;11046;49.558;8.674;2023-07-13T01:41:51;18.70;59.30
21770;DHT22;11046;49.558;8.674;2023-07-13T01:44:54;18.60;59.40
21770;DHT22;11046;49.558;8.674;2023-07-13T01:47:54;18.50;59.70
21770;DHT22;11046;49.558;8.674;2023-07-13T01:50:55;18.40;60.00
21770;DHT22;11046;49.558;8.674;2023-07-13T01:53:56;18.30;60.30
21770;DHT22;11046;49.558;8.674;2023-07-13T01:56:58;18.10;60.80
21770;DHT22;11046;49.558;8.674;2023-07-13T01:59:58;18.00;60.90
21770;DHT22;11046;49.558;8.674;2023-07-13T02:02:59;18.00;60.70
21770;DHT22;11046;49.558;8.674;2023-07-13T02:06:00;18.00;61.00
21770;DHT22;11046;49.558;8.674;2023-07-13T02:09:00;17.90;61.30
21770;DHT22;11046;49.558;8.674;2023-07-13T02:12:01;17.70;61.80
21770;DHT22;11046;49.558;8.674;2023-07-13T02:15:08;17.70;63.10
21770;DHT22;11046;49.558;8.674;2023-07-13T02:18:09;17.60;62.10
21770;DHT22;11046;49.558;8.674;2023-07-13T02:21:09;17.60;62.30
21770;DHT22;11046;49.558;8.674;2023-07-13T02:24:10;17.50;62.50
21770;DHT22;11046;49.558;8.674;2023-07-13T02:27:16;17.40;62.70
21770;DHT22;11046;49.558;8.674;2023-07-13T02:30:17;17.40;63.00
21770;DHT22;11046;49.558;8.674;2023-07-13T02:33:18;17.30;63.20
21770;DHT22;11046;49.558;8.674;2023-07-13T02:36:18;17.30;63.30
21770;DHT22;11046;49.558;8.674;2023-07-13T02:39:20;17.30;63.40
21770;DHT22;11046;49.558;8.674;2023-07-13T02:42:20;17.30;63.70
21770;DHT22;11046;49.558;8.674;2023-07-13T02:45:21;17.20;64.00
21770;DHT22;11046;49.558;8.674;2023-07-13T02:48:22;17.00;64.00
21770;DHT22;11046;49.558;8.674;2023-07-13T02:51:22;17.00;64.20
21770;DHT22;11046;49.558;8.674;2023-07-13T02:54:23;17.10;64.20
21770;DHT22;11046;49.558;8.674;2023-07-13T02:57:24;17.00;64.30
21770;DHT22;11046;49.558;8.674;2023-07-13T03:00:24;16.90;64.80
21770;DHT22;11046;49.558;8.674;2023-07-13T03:03:26;16.90;65.00
21770;DHT22;11046;49.558;8.674;2023-07-13T03:06:27;16.80;65.10
21770;DHT22;11046;49.558;8.674;2023-07-13T03:09:33;16.70;65.40
21770;DHT22;11046;49.558;8.674;2023-07-13T03:12:34;16.70;65.50
21770;DHT22;11046;49.558;8.674;2023-07-13T03:15:37;16.70;65.70
21770;DHT22;11046;49.558;8.674;2023-07-13T03:18:38;16.60;65.70
21770;DHT22;11046;49.558;8.674;2023-07-13T03:21:42;16.60;65.80
21770;DHT22;11046;49.558;8.674;2023-07-13T03:24:44;16.60;65.90
21770;DHT22;11046;49.558;8.674;2023-07-13T03:27:44;16.60;66.00
21770;DHT22;11046;49.558;8.674;2023-07-13T03:30:45;16.60;66.40
21770;DHT22;11046;49.558;8.674;2023-07-13T03:33:46;16.60;66.50
21770;DHT22;11046;49.558;8.674;2023-07-13T03:36:48;16.60;66.70
21770;DHT22;11046;49.558;8.674;2023-07-13T03:39:49;16.50;66.80
21770;DHT22;11046;49.558;8.674;2023-07-13T03:42:52;16.50;66.80
21770;DHT22;11046;49.558;8.674;2023-07-13T03:45:53;16.50;66.90
21770;DHT22;11046;49.558;8.674;2023-07-13T03:48:53;16.40;67.10
21770;DHT22;11046;49.558;8.674;2023-07-13T03:51:54;16.40;67.20
21770;DHT22;11046;49.558;8.674;2023-07-13T03:54:55;16.40;67.20
21770;DHT22;11046;49.558;8.674;2023-07-13T03:58:23;16.40;67.30
21770;DHT22;11046;49.558;8.674;2023-07-13T04:01:24;16.40;67.60
21770;DHT22;11046;49.558;8.674;2023-07-13T04:04:27;16.40;67.70
21770;DHT22;11046;49.558;8.674;2023-07-13T04:07:28;16.30;68.20
21770;DHT22;11046;49.558;8.674;2023-07-13T04:10:29;16.30;68.40
21770;DHT22;11046;49.558;8.674;2023-07-13T04:13:30;16.30;68.40
21770;DHT22;11046;49.558;8.674;2023-07-13T04:16:31;16.30;68.50
21770;DHT22;11046;49.558;8.674;2023-07-13T04:19:32;16.20;68.70
21770;DHT22;11046;49.558;8.674;2023-07-13T04:22:33;16.20;68.70
21770;DHT22;11046;49.558;8.674;2023-07-13T04:25:33;16.30;68.90
21770;DHT22;11046;49.558;8.674;2023-07-13T04:28:34;16.30;69.00
21770;DHT22;11046;49.558;8.674;2023-07-13T04:31:35;16.20;69.20
21770;DHT22;11046;49.558;8.674;2023-07-13T04:34:35;16.20;69.30
21770;DHT22;11046;49.558;8.674;2023-07-13T04:37:36;16.30;69.50
21770;DHT22;11046;49.558;8.674;2023-07-13T04:40:37;16.30;69.50
21770;DHT22;11046;49.558;8.674;2023-07-13T04:43:37;16.30;69.80
21770;DHT22;11046;49.558;8.674;2023-07-13T04:46:38;16.20;70.00
21770;DHT22;11046;49.558;8.674;2023-07-13T04:49:39;16.20;70.30
21770;DHT22;11046;49.558;8.674;2023-07-13T04:52:40;16.30;70.40
21770;DHT22;11046;49.558;8.674;2023-07-13T04:55:41;16.20;70.50
21770;DHT22;11046;49.558;8.674;2023-07-13T04:58:41;16.30;70.80
21770;DHT22;11046;49.558;8.674;2023-07-13T05:01:42;16.30;70.90
21770;DHT22;11046;49.558;8.674;2023-07-13T05:04:42;16.30;71.00
21770;DHT22;11046;49.558;8.674;2023-07-13T05:07:46;16.30;71.00
21770;DHT22;11046;49.558;8.674;2023-07-13T05:10:46;16.30;71.10
21770;DHT22;11046;49.558;8.674;2023-07-13T05:13:47;16.40;71.10
21770;DHT22;11046;49.558;8.674;2023-07-13T05:16:47;16.40;71.30
21770;DHT22;11046;49.558;8.674;2023-07-13T05:19:48;16.50;71.50
21770;DHT22;11046;49.558;8.674;2023-07-13T05:22:48;16.60;71.50
21770;DHT22;11046;49.558;8.674;2023-07-13T05:25:50;16.60;71.70
21770;DHT22;11046;49.558;8.674;2023-07-13T05:28:51;16.70;71.80
21770;DHT22;11046;49.558;8.674;2023-07-13T05:31:52;16.70;71.70
21770;DHT22;11046;49.558;8.674;2023-07-13T05:34:52;16.80;72.00
21770;DHT22;11046;49.558;8.674;2023-07-13T05:37:53;16.80;72.00
21770;DHT22;11046;49.558;8.674;2023-07-13T05:40:55;17.00;72.10
21770;DHT22;11046;49.558;8.674;2023-07-13T05:43:56;17.00;71.80
21770;DHT22;11046;49.558;8.674;2023-07-13T05:46:56;17.10;72.20
21770;DHT22;11046;49.558;8.674;2023-07-13T05:49:57;17.20;72.60
21770;DHT22;11046;49.558;8.674;2023-07-13T05:52:57;17.40;72.30
21770;DHT22;11046;49.558;8.674;2023-07-13T05:55:58;17.60;71.80
21770;DHT22;11046;49.558;8.674;2023-07-13T05:58:59;17.80;71.50
21770;DHT22;11046;49.558;8.674;2023-07-13T06:01:59;17.90;71.30
21770;DHT22;11046;49.558;8.674;2023-07-13T06:05:00;17.90;71.50
21770;DHT22;11046;49.558;8.674;2023-07-13T06:08:00;18.00;72.10
21770;DHT22;11046;49.558;8.674;2023-07-13T06:11:03;18.20;72.00
21770;DHT22;11046;49.558;8.674;2023-07-13T06:14:04;18.10;71.90
21770;DHT22;11046;49.558;8.674;2023-07-13T06:17:05;18.20;72.00
21770;DHT22;11046;49.558;8.674;2023-07-13T06:20:06;18.30;71.90
21770;DHT22;11046;49.558;8.674;2023-07-13T06:23:07;18.20;72.00
21770;DHT22;11046;49.558;8.674;2023-07-13T06:26:08;18.30;72.20
21770;DHT22;11046;49.558;8.674;2023-07-13T06:29:09;18.30;72.30
21770;DHT22;11046;49.558;8.674;2023-07-13T06:32:09;18.50;72.50
21770;DHT22;11046;49.558;8.674;2023-07-13T06:35:10;18.90;71.90
21770;DHT22;11046;49.558;8.674;2023-07-13T06:38:13;19.30;70.70
21770;DHT22;11046;49.558;8.674;2023-07-13T06:41:13;19.70;69.70
21770;DHT22;11046;49.558;8.674;2023-07-13T06:44:14;20.00;69.10
21770;DHT22;11046;49.558;8.674;2023-07-13T06:47:14;20.30;68.40
21770;DHT22;11046;49.558;8.674;2023-07-13T06:50:15;20.60;67.70
21770;DHT22;11046;49.558;8.674;2023-07-13T06:53:16;20.80;67.10
21770;DHT22;11046;49.558;8.674;2023-07-13T06:56:17;21.10;66.60
21770;DHT22;11046;49.558;8.674;2023-07-13T06:59:19;21.50;64.80
21770;DHT22;11046;49.558;8.674;2023-07-13T07:02:19;21.90;63.30
21770;DHT22;11046;49.558;8.674;2023-07-13T07:05:20;22.30;62.60
21770;DHT22;11046;49.558;8.674;2023-07-13T07:08:22;22.60;61.60
21770;DHT22;11046;49.558;8.674;2023-07-13T07:11:24;22.80;60.70
21770;DHT22;11046;49.558;8.674;2023-07-13T07:14:25;23.10;59.40
21770;DHT22;11046;49.558;8.674;2023-07-13T07:17:26;23.40;58.50
21770;DHT22;11046;49.558;8.674;2023-07-13T07:20:26;23.70;57.70
21770;DHT22;11046;49.558;8.674;2023-07-13T07:23:27;23.90;56.40
21770;DHT22;11046;49.558;8.674;2023-07-13T07:26:28;24.10;55.70
21770;DHT22;11046;49.558;8.674;2023-07-13T07:29:29;24.10;55.00
21770;DHT22;11046;49.558;8.674;2023-07-13T07:32:30;24.20;54.60
21770;DHT22;11046;49.558;8.674;2023-07-13T07:35:31;24.40;54.10
21770;DHT22;11046;49.558;8.674;2023-07-13T07:38:32;24.50;53.60
21770;DHT22;11046;49.558;8.674;2023-07-13T07:41:32;24.80;53.00
21770;DHT22;11046;49.558;8.674;2023-07-13T07:44:33;25.00;52.50
21770;DHT22;11046;49.558;8.674;2023-07-13T07:47:34;25.20;52.10
21770;DHT22;11046;49.558;8.674;2023-07-13T07:50:35;25.40;51.80
21770;DHT22;11046;49.558;8.674;2023-07-13T07:53:36;25.70;51.10
21770;DHT22;11046;49.558;8.674;2023-07-13T07:56:37;25.70;50.20
21770;DHT22;11046;49.558;8.674;2023-07-13T07:59:37;25.60;49.80
21770;DHT22;11046;49.558;8.674;2023-07-13T08:02:38;25.40;49.90
21770;DHT22;11046;49.558;8.674;2023-07-13T08:05:41;25.50;50.00
21770;DHT22;11046;49.558;8.674;2023-07-13T08:08:42;25.70;49.80
21770;DHT22;11046;49.558;8.674;2023-07-13T08:11:42;26.10;49.40
21770;DHT22;11046;49.558;8.674;2023-07-13T08:14:43;26.50;48.70
21770;DHT22;11046;49.558;8.674;2023-07-13T08:17:43;26.80;48.50
21770;DHT22;11046;49.558;8.674;2023-07-13T08:20:44;27.10;48.00
21770;DHT22;11046;49.558;8.674;2023-07-13T08:23:45;27.20;47.40
21770;DHT22;11046;49.558;8.674;2023-07-13T08:26:45;27.40;47.00
21770;DHT22;11046;49.558;8.674;2023-07-13T08:29:49;27.50;46.70
21770;DHT22;11046;49.558;8.674;2023-07-13T08:32:50;27.70;46.30
21770;DHT22;11046;49.558;8.674;2023-07-13T08:35:51;27.50;45.50
21770;DHT22;11046;49.558;8.674;2023-07-13T08:38:51;27.20;46.10
21770;DHT22;11046;49.558;8.674;2023-07-13T08:41:59;27.40;46.10
21770;DHT22;11046;49.558;8.674;2023-07-13T08:48:35;27.60;45.40
21770;DHT22;11046;49.558;8.674;2023-07-13T08:51:50;27.80;45.00
21770;DHT22;11046;49.558;8.674;2023-07-13T08:54:52;28.30;44.90
21770;DHT22;11046;49.558;8.674;2023-07-13T08:58:01;28.30;44.60
21770;DHT22;11046;49.558;8.674;2023-07-13T09:01:21;28.50;44.10
21770;DHT22;11046;49.558;8.674;2023-07-13T09:04:26;28.70;43.60
21770;DHT22;11046;49.558;8.674;2023-07-13T09:07:58;28.70;43.80
21770;DHT22;11046;49.558;8.674;2023-07-13T09:14:49;28.40;43.30
21770;DHT22;11046;49.558;8.674;2023-07-13T09:17:52;28.50;43.90
21770;DHT22;11046;49.558;8.674;2023-07-13T09:21:02;28.70;43.30
21770;DHT22;11046;49.558;8.674;2023-07-13T09:24:28;28.70;42.50
21770;DHT22;11046;49.558;8.674;2023-07-13T09:27:37;28.50;42.30
21770;DHT22;11046;49.558;8.674;2023-07-13T09:30:46;28.30;42.70
21770;DHT22;11046;49.558;8.674;2023-07-13T09:33:52;28.40;42.30
21770;DHT22;11046;49.558;8.674;2023-07-13T09:36:52;28.70;42.40
21770;DHT22;11046;49.558;8.674;2023-07-13T09:39:53;29.10;42.10
21770;DHT22;11046;49.558;8.674;2023-07-13T09:42:54;28.80;41.60
21770;DHT22;11046;49.558;8.674;2023-07-13T09:45:56;28.40;41.50
21770;DHT22;11046;49.558;8.674;2023-07-13T09:48:57;27.90;41.80
21770;DHT22;11046;49.558;8.674;2023-07-13T09:52:03;27.60;42.50
21770;DHT22;11046;49.558;8.674;2023-07-13T09:55:04;27.10;43.00
21770;DHT22;11046;49.558;8.674;2023-07-13T09:58:12;26.50;43.80
21770;DHT22;11046;49.558;8.674;2023-07-13T10:01:14;26.30;44.20
21770;DHT22;11046;49.558;8.674;2023-07-13T10:04:17;26.30;44.20
21770;DHT22;11046;49.558;8.674;2023-07-13T10:07:22;26.20;43.90
21770;DHT22;11046;49.558;8.674;2023-07-13T10:10:23;26.20;43.90
21770;DHT22;11046;49.558;8.674;2023-07-13T10:13:28;26.30;43.90
21770;DHT22;11046;49.558;8.674;2023-07-13T10:16:32;26.20;43.50
21770;DHT22;11046;49.558;8.674;2023-07-13T10:19:34;26.10;43.80
21770;DHT22;11046;49.558;8.674;2023-07-13T10:25:55;25.70;43.00
21770;DHT22;11046;49.558;8.674;2023-07-13T10:29:01;25.50;43.40
21770;DHT22;11046;49.558;8.674;2023-07-13T10:32:04;25.30;43.50
21770;DHT22;11046;49.558;8.674;2023-07-13T10:35:12;25.30;43.70
21770;DHT22;11046;49.558;8.674;2023-07-13T10:38:15;25.40;43.70
21770;DHT22;11046;49.558;8.674;2023-07-13T10:41:21;25.30;43.60
21770;DHT22;11046;49.558;8.674;2023-07-13T10:44:29;25.20;43.70
21770;DHT22;11046;49.558;8.674;2023-07-13T10:47:31;25.10;43.60
21770;DHT22;11046;49.558;8.674;2023-07-13T10:50:42;25.00;43.80
21770;DHT22;11046;49.558;8.674;2023-07-13T10:53:43;25.10;43.90
21770;DHT22;11046;49.558;8.674;2023-07-13T10:56:45;25.10;43.80
21770;DHT22;11046;49.558;8.674;2023-07-13T11:03:15;25.00;43.20
21770;DHT22;11046;49.558;8.674;2023-07-13T11:06:37;25.10;43.60
21770;DHT22;11046;49.558;8.674;2023-07-13T11:09:40;25.50;43.60
21770;DHT22;11046;49.558;8.674;2023-07-13T11:15:48;26.90;42.80
21770;DHT22;11046;49.558;8.674;2023-07-13T11:18:51;27.50;42.00
21770;DHT22;11046;49.558;8.674;2023-07-13T11:25:29;27.20;40.50
21770;DHT22;11046;49.558;8.674;2023-07-13T11:28:31;26.90;40.60
21770;DHT22;11046;49.558;8.674;2023-07-13T11:31:34;26.80;41.10
21770;DHT22;11046;49.558;8.674;2023-07-13T11:34:37;26.80;41.20
21770;DHT22;11046;49.558;8.674;2023-07-13T11:37:38;26.90;41.00
21770;DHT22;11046;49.558;8.674;2023-07-13T11:40:39;27.00;40.80
21770;DHT22;11046;49.558;8.674;2023-07-13T11:43:41;27.20;40.70
21770;DHT22;11046;49.558;8.674;2023-07-13T11:46:47;27.20;40.00
21770;DHT22;11046;49.558;8.674;2023-07-13T11:49:50;27.20;39.70
21770;DHT22;11046;49.558;8.674;2023-07-13T11:52:54;27.30;40.10
21770;DHT22;11046;49.558;8.674;2023-07-13T11:55:57;27.50;39.80
21770;DHT22;11046;49.558;8.674;2023-07-13T11:59:04;27.70;39.30
21770;DHT22;11046;49.558;8.674;2023-07-13T12:02:18;28.20;39.20
21770;DHT22;11046;49.558;8.674;2023-07-13T12:05:23;28.60;39.00
21770;DHT22;11046;49.558;8.674;2023-07-13T12:08:25;28.70;39.10
21770;DHT22;11046;49.558;8.674;2023-07-13T12:11:27;28.70;38.50
21770;DHT22;11046;49.558;8.674;2023-07-13T12:14:28;28.40;38.00
21770;DHT22;11046;49.558;8.674;2023-07-13T12:17:29;28.30;38.00
21770;DHT22;11046;49.558;8.674;2023-07-13T12:20:38;27.90;38.00
21770;DHT22;11046;49.558;8.674;2023-07-13T12:23:39;27.60;38.10
21770;DHT22;11046;49.558;8.674;2023-07-13T12:26:44;27.40;38.60
21770;DHT22;11046;49.558;8.674;2023-07-13T12:29:59;27.50;38.80
21770;DHT22;11046;49.558;8.674;2023-07-13T12:33:11;27.40;39.40
21770;DHT22;11046;49.558;8.674;2023-07-13T12:36:12;27.20;38.90
21770;DHT22;11046;49.558;8.674;2023-07-13T12:39:23;27.10;39.10
21770;DHT22;11046;49.558;8.674;2023-07-13T12:42:27;27.10;39.30
21770;DHT22;11046;49.558;8.674;2023-07-13T12:45:28;27.20;39.00
21770;DHT22;11046;49.558;8.674;2023-07-13T12:48:29;26.90;39.00
21770;DHT22;11046;49.558;8.674;2023-07-13T12:51:30;26.90;39.00
21770;DHT22;11046;49.558;8.674;2023-07-13T12:54:31;27.00;38.90
21770;DHT22;11046;49.558;8.674;2023-07-13T12:57:31;27.00;38.90
21770;DHT22;11046;49.558;8.674;2023-07-13T13:00:37;27.10;38.80
21770;DHT22;11046;49.558;8.674;2023-07-13T13:03:44;27.20;38.60
21770;DHT22;11046;49.558;8.674;2023-07-13T13:06:45;27.40;38.70
21770;DHT22;11046;49.558;8.674;2023-07-13T13:09:46;27.30;38.40
21770;DHT22;11046;49.558;8.674;2023-07-13T13:12:47;27.30;38.50
21770;DHT22;11046;49.558;8.674;2023-07-13T13:15:48;27.20;38.40
21770;DHT22;11046;49.558;8.674;2023-07-13T13:18:50;27.20;38.50
21770;DHT22;11046;49.558;8.674;2023-07-13T13:21:54;27.20;38.50
21770;DHT22;11046;49.558;8.674;2023-07-13T13:24:56;27.40;38.60
21770;DHT22;11046;49.558;8.674;2023-07-13T13:28:04;27.60;39.00
21770;DHT22;11046;49.558;8.674;2023-07-13T13:31:08;27.60;38.20
21770;DHT22;11046;49.558;8.674;2023-07-13T13:34:14;27.50;38.30
21770;DHT22;11046;49.558;8.674;2023-07-13T13:37:23;27.40;38.40
21770;DHT22;11046;49.558;8.674;2023-07-13T13:40:25;27.30;38.30
21770;DHT22;11046;49.558;8.674;2023-07-13T13:43:27;27.10;38.60
21770;DHT22;11046;49.558;8.674;2023-07-13T13:46:28;26.90;38.60
21770;DHT22;11046;49.558;8.674;2023-07-13T13:49:30;26.90;39.00
21770;DHT22;11046;49.558;8.674;2023-07-13T13:52:31;26.90;39.10
21770;DHT22;11046;49.558;8.674;2023-07-13T13:55:32;26.90;39.10
21770;DHT22;11046;49.558;8.674;2023-07-13T13:58:33;26.80;39.00
21770;DHT22;11046;49.558;8.674;2023-07-13T14:01:33;26.80;39.10
21770;DHT22;11046;49.558;8.674;2023-07-13T14:04:34;26.80;39.20
21770;DHT22;11046;49.558;8.674;2023-07-13T14:07:34;26.80;39.30
21770;DHT22;11046;49.558;8.674;2023-07-13T14:10:35;26.90;39.00
21770;DHT22;11046;49.558;8.674;2023-07-13T14:13:40;26.90;39.20
21770;DHT22;11046;49.558;8.674;2023-07-13T14:16:41;26.90;39.20
21770;DHT22;11046;49.558;8.674;2023-07-13T14:19:43;26.80;39.90
21770;DHT22;11046;49.558;8.674;2023-07-13T14:22:43;26.80;39.40
21770;DHT22;11046;49.558;8.674;2023-07-13T14:25:47;27.10;39.50
21770;DHT22;11046;49.558;8.674;2023-07-13T14:28:50;27.20;39.30
21770;DHT22;11046;49.558;8.674;2023-07-13T14:31:51;27.30;39.30
21770;DHT22;11046;49.558;8.674;2023-07-13T14:34:52;27.20;39.10
21770;DHT22;11046;49.558;8.674;2023-07-13T14:37:53;27.00;39.20
21770;DHT22;11046;49.558;8.674;2023-07-13T14:40:54;27.00;39.50
21770;DHT22;11046;49.558;8.674;2023-07-13T14:43:54;26.90;39.40
21770;DHT22;11046;49.558;8.674;2023-07-13T14:46:57;27.10;39.50
21770;DHT22;11046;49.558;8.674;2023-07-13T14:49:58;27.40;39.30
21770;DHT22;11046;49.558;8.674;2023-07-13T14:52:59;27.40;39.40
21770;DHT22;11046;49.558;8.674;2023-07-13T14:55:59;27.50;39.30
21770;DHT22;11046;49.558;8.674;2023-07-13T14:59:00;27.20;40.00
21770;DHT22;11046;49.558;8.674;2023-07-13T15:02:00;27.00;39.50
21770;DHT22;11046;49.558;8.674;2023-07-13T15:05:12;27.10;39.50
21770;DHT22;11046;49.558;8.674;2023-07-13T15:08:13;27.20;39.20
21770;DHT22;11046;49.558;8.674;2023-07-13T15:11:13;27.30;39.30
21770;DHT22;11046;49.558;8.674;2023-07-13T15:14:14;27.20;39.10
21770;DHT22;11046;49.558;8.674;2023-07-13T15:17:35;27.10;39.30
21770;DHT22;11046;49.558;8.674;2023-07-13T15:20:37;27.00;39.80
21770;DHT22;11046;49.558;8.674;2023-07-13T15:23:37;27.30;40.40
21770;DHT22;11046;49.558;8.674;2023-07-13T15:26:38;27.60;40.00
21770;DHT22;11046;49.558;8.674;2023-07-13T15:29:39;27.90;39.60
21770;DHT22;11046;49.558;8.674;2023-07-13T15:32:43;28.00;39.10
21770;DHT22;11046;49.558;8.674;2023-07-13T15:35:44;27.90;39.10
21770;DHT22;11046;49.558;8.674;2023-07-13T15:38:48;27.70;38.90
21770;DHT22;11046;49.558;8.674;2023-07-13T15:41:51;27.50;38.60
21770;DHT22;11046;49.558;8.674;2023-07-13T15:44:52;27.30;38.70
21770;DHT22;11046;49.558;8.674;2023-07-13T15:47:53;27.50;39.10
21770;DHT22;11046;49.558;8.674;2023-07-13T15:50:55;27.50;39.10
21770;DHT22;11046;49.558;8.674;2023-07-13T15:54:02;27.40;39.10
21770;DHT22;11046;49.558;8.674;2023-07-13T15:57:09;27.10;39.20
21770;DHT22;11046;49.558;8.674;2023-07-13T16:00:23;26.90;39.30
21770;DHT22;11046;49.558;8.674;2023-07-13T16:03:24;26.80;39.40
21770;DHT22;11046;49.558;8.674;2023-07-13T16:06:28;26.90;39.70
21770;DHT22;11046;49.558;8.674;2023-07-13T16:09:30;27.00;39.80
21770;DHT22;11046;49.558;8.674;2023-07-13T16:12:30;27.00;39.50
21770;DHT22;11046;49.558;8.674;2023-07-13T16:15:31;27.00;39.50
21770;DHT22;11046;49.558;8.674;2023-07-13T16:18:32;26.80;39.40
21770;DHT22;11046;49.558;8.674;2023-07-13T16:21:36;26.60;39.40
21770;DHT22;11046;49.558;8.674;2023-07-13T16:24:38;26.60;39.60
21770;DHT22;11046;49.558;8.674;2023-07-13T16:27:39;26.70;39.60
21770;DHT22;11046;49.558;8.674;2023-07-13T16:30:39;26.60;39.50
21770;DHT22;11046;49.558;8.674;2023-07-13T16:33:40;26.60;39.70
21770;DHT22;11046;49.558;8.674;2023-07-13T16:36:41;26.50;39.80
21770;DHT22;11046;49.558;8.674;2023-07-13T16:39:48;26.40;39.80
21770;DHT22;11046;49.558;8.674;2023-07-13T16:42:54;26.30;39.60
21770;DHT22;11046;49.558;8.674;2023-07-13T16:45:57;26.20;39.40
21770;DHT22;11046;49.558;8.674;2023-07-13T16:48:59;25.90;39.40
21770;DHT22;11046;49.558;8.674;2023-07-13T16:52:02;25.80;39.70
21770;DHT22;11046;49.558;8.674;2023-07-13T16:55:03;25.70;40.00
21770;DHT22;11046;49.558;8.674;2023-07-13T16:58:04;25.70;40.10
21770;DHT22;11046;49.558;8.674;2023-07-13T17:01:06;25.60;40.00
21770;DHT22;11046;49.558;8.674;2023-07-13T17:04:09;25.30;40.10
21770;DHT22;11046;49.558;8.674;2023-07-13T17:07:10;25.30;40.50
21770;DHT22;11046;49.558;8.674;2023-07-13T17:10:17;25.30;40.50
21770;DHT22;11046;49.558;8.674;2023-07-13T17:13:20;25.20;40.50
21770;DHT22;11046;49.558;8.674;2023-07-13T17:16:21;25.30;40.60
21770;DHT22;11046;49.558;8.674;2023-07-13T17:19:28;25.20;40.80
21770;DHT22;11046;49.558;8.674;2023-07-13T17:22:29;25.20;40.70
21770;DHT22;11046;49.558;8.674;2023-07-13T17:25:29;25.20;41.00
21770;DHT22;11046;49.558;8.674;2023-07-13T17:28:31;25.20;41.10
21770;DHT22;11046;49.558;8.674;2023-07-13T17:31:32;25.10;41.00
21770;DHT22;11046;49.558;8.674;2023-07-13T17:34:33;25.10;41.10
21770;DHT22;11046;49.558;8.674;2023-07-13T17:37:34;25.00;40.80
21770;DHT22;11046;49.558;8.674;2023-07-13T17:40:35;24.90;40.90
21770;DHT22;11046;49.558;8.674;2023-07-13T17:43:35;24.80;41.10
21770;DHT22;11046;49.558;8.674;2023-07-13T17:46:36;24.80;41.50
21770;DHT22;11046;49.558;8.674;2023-07-13T17:49:37;24.80;41.70
21770;DHT22;11046;49.558;8.674;2023-07-13T17:52:37;24.80;41.50
21770;DHT22;11046;49.558;8.674;2023-07-13T17:55:40;24.70;41.50
21770;DHT22;11046;49.558;8.674;2023-07-13T17:58:40;24.60;41.30
21770;DHT22;11046;49.558;8.674;2023-07-13T18:01:43;24.60;41.60
21770;DHT22;11046;49.558;8.674;2023-07-13T18:04:46;24.60;41.70
21770;DHT22;11046;49.558;8.674;2023-07-13T18:07:47;24.50;41.80
21770;DHT22;11046;49.558;8.674;2023-07-13T18:10:48;24.60;42.00
21770;DHT22;11046;49.558;8.674;2023-07-13T18:13:48;24.50;42.10
21770;DHT22;11046;49.558;8.674;2023-07-13T18:16:53;24.40;42.20
21770;DHT22;11046;49.558;8.674;2023-07-13T18:19:55;24.30;42.00
21770;DHT22;11046;49.558;8.674;2023-07-13T18:22:56;24.20;42.00
21770;DHT22;11046;49.558;8.674;2023-07-13T18:25:57;24.10;42.20
21770;DHT22;11046;49.558;8.674;2023-07-13T18:28:58;24.00;42.50
21770;DHT22;11046;49.558;8.674;2023-07-13T18:31:58;23.90;43.00
21770;DHT22;11046;49.558;8.674;2023-07-13T18:35:04;23.80;43.30
21770;DHT22;11046;49.558;8.674;2023-07-13T18:38:18;23.80;43.50
21770;DHT22;11046;49.558;8.674;2023-07-13T18:41:20;23.70;43.80
21770;DHT22;11046;49.558;8.674;2023-07-13T18:44:21;23.60;44.10
21770;DHT22;11046;49.558;8.674;2023-07-13T18:47:22;23.60;44.30
21770;DHT22;11046;49.558;8.674;2023-07-13T18:50:29;23.40;44.60
21770;DHT22;11046;49.558;8.674;2023-07-13T18:53:30;23.30;45.30
21770;DHT22;11046;49.558;8.674;2023-07-13T18:56:30;23.20;45.60
21770;DHT22;11046;49.558;8.674;2023-07-13T18:59:32;23.00;45.90
21770;DHT22;11046;49.558;8.674;2023-07-13T19:02:33;22.90;46.40
21770;DHT22;11046;49.558;8.674;2023-07-13T19:05:34;22.70;46.70
21770;DHT22;11046;49.558;8.674;2023-07-13T19:08:41;22.60;47.10
21770;DHT22;11046;49.558;8.674;2023-07-13T19:11:43;22.40;47.20
21770;DHT22;11046;49.558;8.674;2023-07-13T19:14:43;22.30;47.20
21770;DHT22;11046;49.558;8.674;2023-07-13T19:17:46;22.20;47.40
21770;DHT22;11046;49.558;8.674;2023-07-13T19:20:49;22.00;47.60
21770;DHT22;11046;49.558;8.674;2023-07-13T19:23:51;21.90;47.70
21770;DHT22;11046;49.558;8.674;2023-07-13T19:26:52;21.80;47.80
21770;DHT22;11046;49.558;8.674;2023-07-13T19:29:53;21.60;48.10
21770;DHT22;11046;49.558;8.674;2023-07-13T19:32:54;21.50;48.40